sensor_id;sensor_type;location;lat;lon;timestamp;P1;durP1;ratioP1;P2;durP2;ratioP2
52210;SDS011;38179;52.756;6.906;2023-03-01T00:00:42;24.95;;;18.10;;
52210;SDS011;38179;52.756;6.906;2023-03-01T00:03:11;24.75;;;17.98;;
52210;SDS011;38179;52.756;6.906;2023-03-01T00:05:43;27.92;;;18.60;;
52210;SDS011;38179;52.756;6.906;2023-03-01T00:08:12;27.17;;;17.92;;
52210;SDS011;38179;52.756;6.906;2023-03-01T00:10:38;29.13;;;19.55;;
52210;SDS011;38179;52.756;6.906;2023-03-01T00:13:05;23.83;;;17.95;;
52210;SDS011;38179;52.756;6.906;2023-03-01T00:15:31;28.92;;;19.33;;
52210;SDS011;38179;52.756;6.906;2023-03-01T00:17:57;27.80;;;19.55;;
52210;SDS011;38179;52.756;6.906;2023-03-01T00:20:23;30.05;;;20.67;;
52210;SDS011;38179;52.756;6.906;2023-03-01T00:22:49;31.08;;;20.77;;
52210;SDS011;38179;52.756;6.906;2023-03-01T00:25:15;28.52;;;19.95;;
52210;SDS011;38179;52.756;6.906;2023-03-01T00:27:41;25.38;;;19.52;;
52210;SDS011;38179;52.756;6.906;2023-03-01T00:30:07;28.40;;;19.70;;
52210;SDS011;38179;52.756;6.906;2023-03-01T00:32:33;24.98;;;19.95;;
52210;SDS011;38179;52.756;6.906;2023-03-01T00:34:59;25.98;;;19.80;;
52210;SDS011;38179;52.756;6.906;2023-03-01T00:37:25;31.15;;;20.15;;
52210;SDS011;38179;52.756;6.906;2023-03-01T00:39:51;27.50;;;19.60;;
52210;SDS011;38179;52.756;6.906;2023-03-01T00:42:17;28.85;;;18.85;;
52210;SDS011;38179;52.756;6.906;2023-03-01T00:44:43;30.48;;;20.30;;
52210;SDS011;38179;52.756;6.906;2023-03-01T00:47:08;25.52;;;18.48;;
52210;SDS011;38179;52.756;6.906;2023-03-01T00:49:34;26.10;;;18.60;;
52210;SDS011;38179;52.756;6.906;2023-03-01T00:52:00;28.25;;;18.85;;
52210;SDS011;38179;52.756;6.906;2023-03-01T00:54:26;28.73;;;20.25;;
52210;SDS011;38179;52.756;6.906;2023-03-01T00:56:52;28.15;;;19.42;;
52210;SDS011;38179;52.756;6.906;2023-03-01T00:59:18;28.17;;;20.15;;
52210;SDS011;38179;52.756;6.906;2023-03-01T01:01:44;27.08;;;20.08;;
52210;SDS011;38179;52.756;6.906;2023-03-01T01:04:11;30.80;;;20.45;;
52210;SDS011;38179;52.756;6.906;2023-03-01T01:06:46;27.95;;;19.67;;
52210;SDS011;38179;52.756;6.906;2023-03-01T01:09:13;26.70;;;18.77;;
52210;SDS011;38179;52.756;6.906;2023-03-01T01:11:44;27.35;;;18.23;;
52210;SDS011;38179;52.756;6.906;2023-03-01T01:14:15;26.73;;;18.90;;
52210;SDS011;38179;52.756;6.906;2023-03-01T01:16:42;24.33;;;17.42;;
52210;SDS011;38179;52.756;6.906;2023-03-01T01:19:08;28.23;;;18.90;;
52210;SDS011;38179;52.756;6.906;2023-03-01T01:21:36;23.85;;;18.55;;
52210;SDS011;38179;52.756;6.906;2023-03-01T01:24:02;27.13;;;18.90;;
52210;SDS011;38179;52.756;6.906;2023-03-01T01:26:30;25.92;;;18.52;;
52210;SDS011;38179;52.756;6.906;2023-03-01T01:28:58;27.17;;;17.77;;
52210;SDS011;38179;52.756;6.906;2023-03-01T01:31:28;26.20;;;18.55;;
52210;SDS011;38179;52.756;6.906;2023-03-01T01:33:54;26.70;;;19.05;;
52210;SDS011;38179;52.756;6.906;2023-03-01T01:36:20;32.40;;;19.23;;
52210;SDS011;38179;52.756;6.906;2023-03-01T01:38:48;22.35;;;17.02;;
52210;SDS011;38179;52.756;6.906;2023-03-01T01:41:14;25.67;;;18.13;;
52210;SDS011;38179;52.756;6.906;2023-03-01T01:43:43;28.70;;;19.77;;
52210;SDS011;38179;52.756;6.906;2023-03-01T01:46:32;27.65;;;20.23;;
52210;SDS011;38179;52.756;6.906;2023-03-01T01:48:58;32.30;;;20.33;;
52210;SDS011;38179;52.756;6.906;2023-03-01T01:51:32;26.17;;;19.60;;
52210;SDS011;38179;52.756;6.906;2023-03-01T01:54:12;30.33;;;20.30;;
52210;SDS011;38179;52.756;6.906;2023-03-01T01:59:13;29.45;;;19.88;;
52210;SDS011;38179;52.756;6.906;2023-03-01T02:01:40;28.98;;;18.98;;
52210;SDS011;38179;52.756;6.906;2023-03-01T02:04:06;30.73;;;20.25;;
52210;SDS011;38179;52.756;6.906;2023-03-01T02:06:33;31.35;;;21.20;;
52210;SDS011;38179;52.756;6.906;2023-03-01T02:09:11;30.73;;;20.63;;
52210;SDS011;38179;52.756;6.906;2023-03-01T02:11:39;32.22;;;21.67;;
52210;SDS011;38179;52.756;6.906;2023-03-01T02:14:08;31.00;;;21.75;;
52210;SDS011;38179;52.756;6.906;2023-03-01T02:16:34;33.88;;;20.45;;
52210;SDS011;38179;52.756;6.906;2023-03-01T02:19:00;32.22;;;21.38;;
52210;SDS011;38179;52.756;6.906;2023-03-01T02:24:03;28.17;;;20.15;;
52210;SDS011;38179;52.756;6.906;2023-03-01T02:26:48;28.25;;;20.00;;
52210;SDS011;38179;52.756;6.906;2023-03-01T02:29:17;27.15;;;20.02;;
52210;SDS011;38179;52.756;6.906;2023-03-01T02:31:43;28.85;;;20.45;;
52210;SDS011;38179;52.756;6.906;2023-03-01T02:41:52;29.17;;;20.20;;
52210;SDS011;38179;52.756;6.906;2023-03-01T02:44:19;29.38;;;19.88;;
52210;SDS011;38179;52.756;6.906;2023-03-01T02:46:47;30.17;;;20.90;;
52210;SDS011;38179;52.756;6.906;2023-03-01T02:49:18;30.13;;;19.80;;
52210;SDS011;38179;52.756;6.906;2023-03-01T02:51:52;29.65;;;19.63;;
52210;SDS011;38179;52.756;6.906;2023-03-01T02:59:24;31.13;;;19.55;;
52210;SDS011;38179;52.756;6.906;2023-03-01T03:01:54;32.42;;;21.67;;
52210;SDS011;38179;52.756;6.906;2023-03-01T03:04:20;31.23;;;19.65;;
52210;SDS011;38179;52.756;6.906;2023-03-01T03:06:49;31.58;;;19.92;;
52210;SDS011;38179;52.756;6.906;2023-03-01T03:09:16;27.95;;;19.15;;
52210;SDS011;38179;52.756;6.906;2023-03-01T03:11:43;30.67;;;19.95;;
52210;SDS011;38179;52.756;6.906;2023-03-01T03:14:10;28.02;;;19.92;;
52210;SDS011;38179;52.756;6.906;2023-03-01T03:16:42;26.90;;;19.38;;
52210;SDS011;38179;52.756;6.906;2023-03-01T03:19:10;29.73;;;20.73;;
52210;SDS011;38179;52.756;6.906;2023-03-01T03:21:36;30.33;;;19.95;;
52210;SDS011;38179;52.756;6.906;2023-03-01T03:24:02;29.67;;;20.15;;
52210;SDS011;38179;52.756;6.906;2023-03-01T03:26:29;26.63;;;18.83;;
52210;SDS011;38179;52.756;6.906;2023-03-01T03:28:55;28.45;;;19.33;;
52210;SDS011;38179;52.756;6.906;2023-03-01T03:31:22;29.42;;;18.95;;
52210;SDS011;38179;52.756;6.906;2023-03-01T03:33:48;27.27;;;19.73;;
52210;SDS011;38179;52.756;6.906;2023-03-01T03:36:18;27.00;;;19.30;;
52210;SDS011;38179;52.756;6.906;2023-03-01T03:38:45;28.90;;;19.80;;
52210;SDS011;38179;52.756;6.906;2023-03-01T03:41:11;30.67;;;20.15;;
52210;SDS011;38179;52.756;6.906;2023-03-01T03:43:38;25.52;;;19.38;;
52210;SDS011;38179;52.756;6.906;2023-03-01T03:46:07;29.85;;;20.88;;
52210;SDS011;38179;52.756;6.906;2023-03-01T03:48:39;30.38;;;20.30;;
52210;SDS011;38179;52.756;6.906;2023-03-01T03:51:10;28.27;;;19.90;;
52210;SDS011;38179;52.756;6.906;2023-03-01T03:53:37;26.80;;;18.85;;
52210;SDS011;38179;52.756;6.906;2023-03-01T03:56:03;26.08;;;18.23;;
52210;SDS011;38179;52.756;6.906;2023-03-01T03:58:29;29.15;;;17.85;;
52210;SDS011;38179;52.756;6.906;2023-03-01T04:00:56;27.10;;;19.00;;
52210;SDS011;38179;52.756;6.906;2023-03-01T04:03:22;25.42;;;18.05;;
52210;SDS011;38179;52.756;6.906;2023-03-01T04:05:50;26.23;;;18.73;;
52210;SDS011;38179;52.756;6.906;2023-03-01T04:08:17;26.40;;;18.95;;
52210;SDS011;38179;52.756;6.906;2023-03-01T04:10:48;25.60;;;18.35;;
52210;SDS011;38179;52.756;6.906;2023-03-01T04:13:16;28.70;;;18.98;;
52210;SDS011;38179;52.756;6.906;2023-03-01T04:15:51;28.80;;;19.33;;
52210;SDS011;38179;52.756;6.906;2023-03-01T04:18:18;33.83;;;20.58;;
52210;SDS011;38179;52.756;6.906;2023-03-01T04:20:46;29.83;;;20.27;;
52210;SDS011;38179;52.756;6.906;2023-03-01T04:23:13;28.15;;;20.00;;
52210;SDS011;38179;52.756;6.906;2023-03-01T04:25:52;27.75;;;19.33;;
52210;SDS011;38179;52.756;6.906;2023-03-01T04:28:26;31.02;;;19.85;;
52210;SDS011;38179;52.756;6.906;2023-03-01T04:31:02;28.65;;;19.98;;
52210;SDS011;38179;52.756;6.906;2023-03-01T04:33:48;28.77;;;20.23;;
52210;SDS011;38179;52.756;6.906;2023-03-01T04:36:16;30.85;;;20.27;;
52210;SDS011;38179;52.756;6.906;2023-03-01T04:38:43;34.25;;;20.58;;
52210;SDS011;38179;52.756;6.906;2023-03-01T04:41:13;30.17;;;19.58;;
52210;SDS011;38179;52.756;6.906;2023-03-01T04:43:40;32.83;;;19.92;;
52210;SDS011;38179;52.756;6.906;2023-03-01T04:46:07;33.65;;;20.27;;
52210;SDS011;38179;52.756;6.906;2023-03-01T04:48:37;28.30;;;19.80;;
52210;SDS011;38179;52.756;6.906;2023-03-01T04:51:04;29.70;;;20.95;;
52210;SDS011;38179;52.756;6.906;2023-03-01T04:53:32;31.83;;;20.25;;
52210;SDS011;38179;52.756;6.906;2023-03-01T04:55:58;31.48;;;19.52;;
52210;SDS011;38179;52.756;6.906;2023-03-01T04:58:25;31.45;;;21.27;;
52210;SDS011;38179;52.756;6.906;2023-03-01T05:00:55;30.35;;;20.48;;
52210;SDS011;38179;52.756;6.906;2023-03-01T05:03:21;32.83;;;20.13;;
52210;SDS011;38179;52.756;6.906;2023-03-01T05:05:47;30.77;;;21.73;;
52210;SDS011;38179;52.756;6.906;2023-03-01T05:08:15;34.33;;;21.55;;
52210;SDS011;38179;52.756;6.906;2023-03-01T05:10:45;32.58;;;21.23;;
52210;SDS011;38179;52.756;6.906;2023-03-01T05:15:45;30.85;;;20.55;;
52210;SDS011;38179;52.756;6.906;2023-03-01T05:18:25;36.75;;;21.25;;
52210;SDS011;38179;52.756;6.906;2023-03-01T05:20:54;30.58;;;20.70;;
52210;SDS011;38179;52.756;6.906;2023-03-01T05:23:23;31.40;;;20.45;;
52210;SDS011;38179;52.756;6.906;2023-03-01T05:25:49;34.20;;;20.90;;
52210;SDS011;38179;52.756;6.906;2023-03-01T05:28:17;33.75;;;20.25;;
52210;SDS011;38179;52.756;6.906;2023-03-01T05:30:46;33.85;;;21.60;;
52210;SDS011;38179;52.756;6.906;2023-03-01T05:33:12;34.50;;;21.02;;
52210;SDS011;38179;52.756;6.906;2023-03-01T05:35:39;29.98;;;20.55;;
52210;SDS011;38179;52.756;6.906;2023-03-01T05:38:09;37.42;;;21.15;;
52210;SDS011;38179;52.756;6.906;2023-03-01T05:40:39;32.25;;;21.35;;
52210;SDS011;38179;52.756;6.906;2023-03-01T05:43:09;29.77;;;19.90;;
52210;SDS011;38179;52.756;6.906;2023-03-01T05:45:36;30.13;;;21.35;;
52210;SDS011;38179;52.756;6.906;2023-03-01T05:48:03;30.77;;;21.20;;
52210;SDS011;38179;52.756;6.906;2023-03-01T05:50:38;31.13;;;21.50;;
52210;SDS011;38179;52.756;6.906;2023-03-01T05:53:10;31.90;;;21.67;;
52210;SDS011;38179;52.756;6.906;2023-03-01T05:55:40;29.80;;;19.95;;
52210;SDS011;38179;52.756;6.906;2023-03-01T05:58:09;30.35;;;21.88;;
52210;SDS011;38179;52.756;6.906;2023-03-01T06:00:39;35.85;;;21.77;;
52210;SDS011;38179;52.756;6.906;2023-03-01T06:03:05;34.45;;;22.13;;
52210;SDS011;38179;52.756;6.906;2023-03-01T06:05:31;34.35;;;22.23;;
52210;SDS011;38179;52.756;6.906;2023-03-01T06:08:00;32.22;;;21.95;;
52210;SDS011;38179;52.756;6.906;2023-03-01T06:10:27;36.00;;;22.13;;
52210;SDS011;38179;52.756;6.906;2023-03-01T06:15:28;35.40;;;22.77;;
52210;SDS011;38179;52.756;6.906;2023-03-01T06:17:54;33.78;;;22.50;;
52210;SDS011;38179;52.756;6.906;2023-03-01T06:22:51;33.85;;;20.85;;
52210;SDS011;38179;52.756;6.906;2023-03-01T06:25:19;34.45;;;21.00;;
52210;SDS011;38179;52.756;6.906;2023-03-01T06:27:47;33.83;;;22.85;;
52210;SDS011;38179;52.756;6.906;2023-03-01T06:30:14;32.17;;;22.33;;
52210;SDS011;38179;52.756;6.906;2023-03-01T06:32:41;35.45;;;20.35;;
52210;SDS011;38179;52.756;6.906;2023-03-01T06:35:09;36.72;;;21.27;;
52210;SDS011;38179;52.756;6.906;2023-03-01T06:37:39;36.17;;;21.42;;
52210;SDS011;38179;52.756;6.906;2023-03-01T06:40:06;38.38;;;21.50;;
52210;SDS011;38179;52.756;6.906;2023-03-01T06:42:35;33.05;;;21.02;;
52210;SDS011;38179;52.756;6.906;2023-03-01T06:45:02;33.45;;;20.90;;
52210;SDS011;38179;52.756;6.906;2023-03-01T06:47:29;34.30;;;21.33;;
52210;SDS011;38179;52.756;6.906;2023-03-01T06:49:55;34.60;;;22.38;;
52210;SDS011;38179;52.756;6.906;2023-03-01T06:52:21;34.85;;;21.20;;
52210;SDS011;38179;52.756;6.906;2023-03-01T06:54:47;33.83;;;21.88;;
52210;SDS011;38179;52.756;6.906;2023-03-01T06:57:12;36.90;;;23.13;;
52210;SDS011;38179;52.756;6.906;2023-03-01T06:59:38;33.15;;;21.48;;
52210;SDS011;38179;52.756;6.906;2023-03-01T07:02:04;34.65;;;21.83;;
52210;SDS011;38179;52.756;6.906;2023-03-01T07:04:30;36.33;;;23.23;;
52210;SDS011;38179;52.756;6.906;2023-03-01T07:06:56;34.90;;;23.20;;
52210;SDS011;38179;52.756;6.906;2023-03-01T07:09:22;35.53;;;21.55;;
52210;SDS011;38179;52.756;6.906;2023-03-01T07:11:49;31.58;;;21.80;;
52210;SDS011;38179;52.756;6.906;2023-03-01T07:14:15;37.42;;;23.42;;
52210;SDS011;38179;52.756;6.906;2023-03-01T07:16:41;37.35;;;25.15;;
52210;SDS011;38179;52.756;6.906;2023-03-01T07:19:07;47.78;;;24.67;;
52210;SDS011;38179;52.756;6.906;2023-03-01T07:21:33;54.08;;;25.63;;
52210;SDS011;38179;52.756;6.906;2023-03-01T07:23:59;52.80;;;23.15;;
52210;SDS011;38179;52.756;6.906;2023-03-01T07:26:25;42.45;;;23.25;;
52210;SDS011;38179;52.756;6.906;2023-03-01T07:28:50;38.22;;;21.05;;
52210;SDS011;38179;52.756;6.906;2023-03-01T07:31:16;34.95;;;22.70;;
52210;SDS011;38179;52.756;6.906;2023-03-01T07:33:42;35.85;;;22.25;;
52210;SDS011;38179;52.756;6.906;2023-03-01T07:36:08;50.67;;;23.75;;
52210;SDS011;38179;52.756;6.906;2023-03-01T07:38:35;43.28;;;23.25;;
52210;SDS011;38179;52.756;6.906;2023-03-01T07:41:02;46.17;;;24.23;;
52210;SDS011;38179;52.756;6.906;2023-03-01T07:43:29;35.13;;;22.20;;
52210;SDS011;38179;52.756;6.906;2023-03-01T07:45:59;36.50;;;23.10;;
52210;SDS011;38179;52.756;6.906;2023-03-01T07:48:26;40.35;;;23.83;;
52210;SDS011;38179;52.756;6.906;2023-03-01T07:50:53;38.25;;;23.02;;
52210;SDS011;38179;52.756;6.906;2023-03-01T07:53:19;40.15;;;23.50;;
52210;SDS011;38179;52.756;6.906;2023-03-01T07:55:45;35.55;;;21.77;;
52210;SDS011;38179;52.756;6.906;2023-03-01T07:58:11;28.90;;;19.50;;
52210;SDS011;38179;52.756;6.906;2023-03-01T08:00:41;33.40;;;20.80;;
52210;SDS011;38179;52.756;6.906;2023-03-01T08:03:06;33.42;;;21.60;;
52210;SDS011;38179;52.756;6.906;2023-03-01T08:05:32;34.45;;;21.15;;
52210;SDS011;38179;52.756;6.906;2023-03-01T08:07:58;31.52;;;21.23;;
52210;SDS011;38179;52.756;6.906;2023-03-01T08:10:24;31.67;;;20.63;;
52210;SDS011;38179;52.756;6.906;2023-03-01T08:12:51;31.38;;;20.83;;
52210;SDS011;38179;52.756;6.906;2023-03-01T08:15:18;30.75;;;20.75;;
52210;SDS011;38179;52.756;6.906;2023-03-01T08:17:44;28.95;;;20.15;;
52210;SDS011;38179;52.756;6.906;2023-03-01T08:20:10;25.55;;;18.27;;
52210;SDS011;38179;52.756;6.906;2023-03-01T08:22:37;25.50;;;18.00;;
52210;SDS011;38179;52.756;6.906;2023-03-01T08:25:03;24.48;;;17.75;;
52210;SDS011;38179;52.756;6.906;2023-03-01T08:27:29;25.95;;;16.77;;
52210;SDS011;38179;52.756;6.906;2023-03-01T08:29:55;23.92;;;16.67;;
52210;SDS011;38179;52.756;6.906;2023-03-01T08:32:21;23.95;;;16.90;;
52210;SDS011;38179;52.756;6.906;2023-03-01T08:34:47;22.20;;;16.17;;
52210;SDS011;38179;52.756;6.906;2023-03-01T08:37:13;27.67;;;16.35;;
52210;SDS011;38179;52.756;6.906;2023-03-01T08:39:39;20.52;;;14.80;;
52210;SDS011;38179;52.756;6.906;2023-03-01T08:42:05;25.27;;;13.10;;
52210;SDS011;38179;52.756;6.906;2023-03-01T08:44:31;20.75;;;12.60;;
52210;SDS011;38179;52.756;6.906;2023-03-01T08:46:57;20.52;;;12.75;;
52210;SDS011;38179;52.756;6.906;2023-03-01T08:49:23;17.23;;;11.93;;
52210;SDS011;38179;52.756;6.906;2023-03-01T08:51:49;20.70;;;12.15;;
52210;SDS011;38179;52.756;6.906;2023-03-01T08:54:16;18.52;;;12.88;;
52210;SDS011;38179;52.756;6.906;2023-03-01T08:56:44;16.52;;;12.23;;
52210;SDS011;38179;52.756;6.906;2023-03-01T08:59:11;20.83;;;13.02;;
52210;SDS011;38179;52.756;6.906;2023-03-01T09:01:38;21.92;;;13.07;;
52210;SDS011;38179;52.756;6.906;2023-03-01T09:04:05;19.05;;;13.18;;
52210;SDS011;38179;52.756;6.906;2023-03-01T09:06:32;19.40;;;11.95;;
52210;SDS011;38179;52.756;6.906;2023-03-01T09:08:59;22.58;;;12.82;;
52210;SDS011;38179;52.756;6.906;2023-03-01T09:11:25;14.52;;;10.80;;
52210;SDS011;38179;52.756;6.906;2023-03-01T09:13:53;15.35;;;11.18;;
52210;SDS011;38179;52.756;6.906;2023-03-01T09:16:19;14.30;;;9.85;;
52210;SDS011;38179;52.756;6.906;2023-03-01T09:18:51;13.45;;;9.63;;
52210;SDS011;38179;52.756;6.906;2023-03-01T09:21:19;15.63;;;11.13;;
52210;SDS011;38179;52.756;6.906;2023-03-01T09:23:46;17.77;;;10.70;;
52210;SDS011;38179;52.756;6.906;2023-03-01T09:26:14;15.60;;;11.20;;
52210;SDS011;38179;52.756;6.906;2023-03-01T09:28:44;15.25;;;10.93;;
52210;SDS011;38179;52.756;6.906;2023-03-01T09:31:11;16.95;;;11.23;;
52210;SDS011;38179;52.756;6.906;2023-03-01T09:33:38;14.73;;;11.10;;
52210;SDS011;38179;52.756;6.906;2023-03-01T09:36:07;17.70;;;10.13;;
52210;SDS011;38179;52.756;6.906;2023-03-01T09:38:36;14.15;;;9.80;;
52210;SDS011;38179;52.756;6.906;2023-03-01T09:41:02;14.48;;;10.80;;
52210;SDS011;38179;52.756;6.906;2023-03-01T09:46:08;11.10;;;8.82;;
52210;SDS011;38179;52.756;6.906;2023-03-01T09:48:44;13.55;;;9.45;;
52210;SDS011;38179;52.756;6.906;2023-03-01T09:51:17;16.23;;;9.53;;
52210;SDS011;38179;52.756;6.906;2023-03-01T09:53:46;12.45;;;9.05;;
52210;SDS011;38179;52.756;6.906;2023-03-01T09:56:15;20.95;;;12.45;;
52210;SDS011;38179;52.756;6.906;2023-03-01T10:01:55;16.35;;;11.00;;
52210;SDS011;38179;52.756;6.906;2023-03-01T10:09:56;13.40;;;9.38;;
52210;SDS011;38179;52.756;6.906;2023-03-01T10:12:26;16.10;;;9.93;;
52210;SDS011;38179;52.756;6.906;2023-03-01T10:15:06;10.77;;;8.15;;
52210;SDS011;38179;52.756;6.906;2023-03-01T10:17:55;11.65;;;8.23;;
52210;SDS011;38179;52.756;6.906;2023-03-01T10:20:28;10.75;;;8.15;;
52210;SDS011;38179;52.756;6.906;2023-03-01T10:23:03;9.43;;;7.50;;
52210;SDS011;38179;52.756;6.906;2023-03-01T10:28:12;11.75;;;7.82;;
52210;SDS011;38179;52.756;6.906;2023-03-01T10:30:52;10.45;;;8.18;;
52210;SDS011;38179;52.756;6.906;2023-03-01T10:33:23;12.52;;;8.32;;
52210;SDS011;38179;52.756;6.906;2023-03-01T10:35:55;11.40;;;7.82;;
52210;SDS011;38179;52.756;6.906;2023-03-01T10:38:21;9.45;;;7.50;;
52210;SDS011;38179;52.756;6.906;2023-03-01T10:43:20;11.32;;;7.85;;
52210;SDS011;38179;52.756;6.906;2023-03-01T10:45:47;10.27;;;7.53;;
52210;SDS011;38179;52.756;6.906;2023-03-01T10:53:27;11.40;;;7.57;;
52210;SDS011;38179;52.756;6.906;2023-03-01T10:56:05;12.85;;;7.95;;
52210;SDS011;38179;52.756;6.906;2023-03-01T10:58:34;9.32;;;7.43;;
52210;SDS011;38179;52.756;6.906;2023-03-01T11:01:03;10.48;;;8.65;;
52210;SDS011;38179;52.756;6.906;2023-03-01T11:03:30;11.98;;;8.25;;
52210;SDS011;38179;52.756;6.906;2023-03-01T11:08:38;10.15;;;8.32;;
52210;SDS011;38179;52.756;6.906;2023-03-01T11:11:05;12.38;;;8.45;;
52210;SDS011;38179;52.756;6.906;2023-03-01T11:13:56;12.20;;;8.80;;
52210;SDS011;38179;52.756;6.906;2023-03-01T11:18:57;10.90;;;8.45;;
52210;SDS011;38179;52.756;6.906;2023-03-01T11:21:37;14.50;;;9.55;;
52210;SDS011;38179;52.756;6.906;2023-03-01T11:27:01;12.18;;;8.63;;
52210;SDS011;38179;52.756;6.906;2023-03-01T11:29:40;11.30;;;8.40;;
52210;SDS011;38179;52.756;6.906;2023-03-01T11:32:13;10.48;;;7.70;;
52210;SDS011;38179;52.756;6.906;2023-03-01T11:37:28;12.18;;;8.98;;
52210;SDS011;38179;52.756;6.906;2023-03-01T11:43:03;12.57;;;9.07;;
52210;SDS011;38179;52.756;6.906;2023-03-01T11:45:39;13.90;;;9.68;;
52210;SDS011;38179;52.756;6.906;2023-03-01T11:48:26;13.63;;;9.32;;
52210;SDS011;38179;52.756;6.906;2023-03-01T11:51:15;11.73;;;9.02;;
52210;SDS011;38179;52.756;6.906;2023-03-01T11:53:51;12.55;;;10.07;;
52210;SDS011;38179;52.756;6.906;2023-03-01T11:56:27;13.18;;;9.75;;
52210;SDS011;38179;52.756;6.906;2023-03-01T11:59:06;14.82;;;9.40;;
52210;SDS011;38179;52.756;6.906;2023-03-01T12:02:15;12.30;;;10.50;;
52210;SDS011;38179;52.756;6.906;2023-03-01T12:07:46;13.40;;;9.77;;
52210;SDS011;38179;52.756;6.906;2023-03-01T12:21:48;15.13;;;10.85;;
52210;SDS011;38179;52.756;6.906;2023-03-01T12:32:50;13.57;;;9.75;;
52210;SDS011;38179;52.756;6.906;2023-03-01T12:49:43;15.30;;;11.32;;
52210;SDS011;38179;52.756;6.906;2023-03-01T12:52:11;19.60;;;11.55;;
52210;SDS011;38179;52.756;6.906;2023-03-01T12:55:00;13.90;;;10.20;;
52210;SDS011;38179;52.756;6.906;2023-03-01T12:57:39;15.55;;;11.55;;
52210;SDS011;38179;52.756;6.906;2023-03-01T13:03:00;13.52;;;10.48;;
52210;SDS011;38179;52.756;6.906;2023-03-01T13:08:10;14.95;;;11.27;;
52210;SDS011;38179;52.756;6.906;2023-03-01T13:13:13;16.67;;;11.73;;
52210;SDS011;38179;52.756;6.906;2023-03-01T13:15:45;15.20;;;11.27;;
52210;SDS011;38179;52.756;6.906;2023-03-01T13:26:03;16.50;;;11.50;;
52210;SDS011;38179;52.756;6.906;2023-03-01T13:28:50;14.90;;;12.10;;
52210;SDS011;38179;52.756;6.906;2023-03-01T13:33:46;15.02;;;11.75;;
52210;SDS011;38179;52.756;6.906;2023-03-01T13:38:56;16.90;;;11.85;;
52210;SDS011;38179;52.756;6.906;2023-03-01T13:44:37;19.13;;;12.05;;
52210;SDS011;38179;52.756;6.906;2023-03-01T13:47:05;16.05;;;12.38;;
52210;SDS011;38179;52.756;6.906;2023-03-01T13:49:48;15.43;;;12.18;;
52210;SDS011;38179;52.756;6.906;2023-03-01T13:52:40;14.45;;;11.70;;
52210;SDS011;38179;52.756;6.906;2023-03-01T13:55:18;16.42;;;12.13;;
52210;SDS011;38179;52.756;6.906;2023-03-01T13:57:50;17.45;;;12.75;;
52210;SDS011;38179;52.756;6.906;2023-03-01T14:00:33;16.63;;;12.48;;
52210;SDS011;38179;52.756;6.906;2023-03-01T14:03:02;18.33;;;13.23;;
52210;SDS011;38179;52.756;6.906;2023-03-01T14:06:20;17.08;;;12.50;;
52210;SDS011;38179;52.756;6.906;2023-03-01T14:08:40;17.73;;;11.85;;
52210;SDS011;38179;52.756;6.906;2023-03-01T14:14:32;16.10;;;12.43;;
52210;SDS011;38179;52.756;6.906;2023-03-01T14:19:32;15.73;;;12.43;;
52210;SDS011;38179;52.756;6.906;2023-03-01T14:22:11;18.60;;;12.63;;
52210;SDS011;38179;52.756;6.906;2023-03-01T14:24:51;18.27;;;13.27;;
52210;SDS011;38179;52.756;6.906;2023-03-01T14:27:20;15.35;;;12.57;;
52210;SDS011;38179;52.756;6.906;2023-03-01T14:29:56;18.23;;;13.63;;
52210;SDS011;38179;52.756;6.906;2023-03-01T14:32:25;18.45;;;13.80;;
52210;SDS011;38179;52.756;6.906;2023-03-01T14:34:57;17.50;;;13.65;;
52210;SDS011;38179;52.756;6.906;2023-03-01T14:37:31;16.40;;;13.38;;
52210;SDS011;38179;52.756;6.906;2023-03-01T14:39:59;17.17;;;13.65;;
52210;SDS011;38179;52.756;6.906;2023-03-01T14:42:31;17.60;;;13.55;;
52210;SDS011;38179;52.756;6.906;2023-03-01T14:45:00;16.98;;;13.23;;
52210;SDS011;38179;52.756;6.906;2023-03-01T14:47:44;16.00;;;13.13;;
52210;SDS011;38179;52.756;6.906;2023-03-01T14:52:45;16.75;;;12.80;;
52210;SDS011;38179;52.756;6.906;2023-03-01T14:55:17;17.65;;;14.65;;
52210;SDS011;38179;52.756;6.906;2023-03-01T15:00:54;19.40;;;13.68;;
52210;SDS011;38179;52.756;6.906;2023-03-01T15:05:51;16.73;;;13.38;;
52210;SDS011;38179;52.756;6.906;2023-03-01T15:08:19;18.67;;;12.95;;
52210;SDS011;38179;52.756;6.906;2023-03-01T15:11:01;18.25;;;13.63;;
52210;SDS011;38179;52.756;6.906;2023-03-01T15:13:29;16.15;;;13.77;;
52210;SDS011;38179;52.756;6.906;2023-03-01T15:16:06;16.90;;;14.05;;
52210;SDS011;38179;52.756;6.906;2023-03-01T15:18:37;16.75;;;13.23;;
52210;SDS011;38179;52.756;6.906;2023-03-01T15:23:52;19.17;;;12.57;;
52210;SDS011;38179;52.756;6.906;2023-03-01T15:26:28;16.27;;;12.90;;
52210;SDS011;38179;52.756;6.906;2023-03-01T15:29:05;16.10;;;12.38;;
52210;SDS011;38179;52.756;6.906;2023-03-01T15:31:52;16.65;;;13.02;;
52210;SDS011;38179;52.756;6.906;2023-03-01T15:36:55;17.88;;;13.00;;
52210;SDS011;38179;52.756;6.906;2023-03-01T15:41:49;15.63;;;12.52;;
52210;SDS011;38179;52.756;6.906;2023-03-01T15:46:45;16.42;;;13.13;;
52210;SDS011;38179;52.756;6.906;2023-03-01T15:49:23;17.40;;;13.40;;
52210;SDS011;38179;52.756;6.906;2023-03-01T15:52:05;17.13;;;13.43;;
52210;SDS011;38179;52.756;6.906;2023-03-01T15:54:41;16.17;;;12.32;;
52210;SDS011;38179;52.756;6.906;2023-03-01T15:57:12;19.38;;;13.63;;
52210;SDS011;38179;52.756;6.906;2023-03-01T15:59:40;15.25;;;12.02;;
52210;SDS011;38179;52.756;6.906;2023-03-01T16:02:08;16.67;;;13.82;;
52210;SDS011;38179;52.756;6.906;2023-03-01T16:04:37;17.98;;;13.73;;
52210;SDS011;38179;52.756;6.906;2023-03-01T16:07:26;16.95;;;13.77;;
52210;SDS011;38179;52.756;6.906;2023-03-01T16:09:53;16.85;;;12.93;;
52210;SDS011;38179;52.756;6.906;2023-03-01T16:12:18;18.35;;;13.25;;
52210;SDS011;38179;52.756;6.906;2023-03-01T16:14:46;22.92;;;14.32;;
52210;SDS011;38179;52.756;6.906;2023-03-01T16:17:13;15.65;;;12.85;;
52210;SDS011;38179;52.756;6.906;2023-03-01T16:19:42;15.50;;;13.10;;
52210;SDS011;38179;52.756;6.906;2023-03-01T16:22:09;18.13;;;13.90;;
52210;SDS011;38179;52.756;6.906;2023-03-01T16:24:35;16.17;;;12.43;;
52210;SDS011;38179;52.756;6.906;2023-03-01T16:27:01;14.77;;;12.23;;
52210;SDS011;38179;52.756;6.906;2023-03-01T16:29:27;14.75;;;12.52;;
52210;SDS011;38179;52.756;6.906;2023-03-01T16:31:54;16.45;;;12.77;;
52210;SDS011;38179;52.756;6.906;2023-03-01T16:34:20;15.23;;;12.70;;
52210;SDS011;38179;52.756;6.906;2023-03-01T16:36:46;15.23;;;13.13;;
52210;SDS011;38179;52.756;6.906;2023-03-01T16:39:12;17.15;;;12.95;;
52210;SDS011;38179;52.756;6.906;2023-03-01T16:41:38;16.88;;;12.40;;
52210;SDS011;38179;52.756;6.906;2023-03-01T16:44:04;15.77;;;12.82;;
52210;SDS011;38179;52.756;6.906;2023-03-01T16:46:30;16.08;;;12.82;;
52210;SDS011;38179;52.756;6.906;2023-03-01T16:48:56;16.20;;;13.30;;
52210;SDS011;38179;52.756;6.906;2023-03-01T16:51:22;18.58;;;13.95;;
52210;SDS011;38179;52.756;6.906;2023-03-01T16:53:49;17.30;;;13.27;;
52210;SDS011;38179;52.756;6.906;2023-03-01T16:56:16;17.75;;;13.13;;
52210;SDS011;38179;52.756;6.906;2023-03-01T16:58:43;18.55;;;13.80;;
52210;SDS011;38179;52.756;6.906;2023-03-01T17:01:10;16.73;;;14.23;;
52210;SDS011;38179;52.756;6.906;2023-03-01T17:03:40;21.02;;;14.30;;